sensor_id;sensor_type;location;lat;lon;timestamp;P1;durP1;ratioP1;P2;durP2;ratioP2
6809;SDS011;3443;48.812;9.112;2023-03-11T00:00:08;0.67;;;0.40;;
6809;SDS011;3443;48.812;9.112;2023-03-11T00:02:41;0.40;;;0.40;;
6809;SDS011;3443;48.812;9.112;2023-03-11T00:05:08;0.40;;;0.40;;
6809;SDS011;3443;48.812;9.112;2023-03-11T00:07:41;0.60;;;0.60;;
6809;SDS011;3443;48.812;9.112;2023-03-11T00:10:07;0.40;;;0.40;;
6809;SDS011;3443;48.812;9.112;2023-03-11T00:12:37;0.50;;;0.50;;
6809;SDS011;3443;48.812;9.112;2023-03-11T00:15:03;0.77;;;0.77;;
6809;SDS011;3443;48.812;9.112;2023-03-11T00:17:29;0.47;;;0.47;;
6809;SDS011;3443;48.812;9.112;2023-03-11T00:19:54;0.60;;;0.40;;
6809;SDS011;3443;48.812;9.112;2023-03-11T00:22:21;0.30;;;0.30;;
6809;SDS011;3443;48.812;9.112;2023-03-11T00:24:47;0.93;;;0.50;;
6809;SDS011;3443;48.812;9.112;2023-03-11T00:27:12;0.80;;;0.50;;
6809;SDS011;3443;48.812;9.112;2023-03-11T00:29:38;0.70;;;0.53;;
6809;SDS011;3443;48.812;9.112;2023-03-11T00:32:04;0.50;;;0.50;;
6809;SDS011;3443;48.812;9.112;2023-03-11T00:34:29;1.40;;;0.60;;
6809;SDS011;3443;48.812;9.112;2023-03-11T00:36:55;0.60;;;0.47;;
6809;SDS011;3443;48.812;9.112;2023-03-11T00:39:20;1.53;;;0.63;;
6809;SDS011;3443;48.812;9.112;2023-03-11T00:41:47;1.10;;;0.77;;
6809;SDS011;3443;48.812;9.112;2023-03-11T00:44:12;0.80;;;0.80;;
6809;SDS011;3443;48.812;9.112;2023-03-11T00:46:38;2.43;;;0.70;;
6809;SDS011;3443;48.812;9.112;2023-03-11T00:49:04;0.60;;;0.60;;
6809;SDS011;3443;48.812;9.112;2023-03-11T00:51:30;0.70;;;0.70;;
6809;SDS011;3443;48.812;9.112;2023-03-11T00:53:56;1.70;;;0.80;;
6809;SDS011;3443;48.812;9.112;2023-03-11T00:56:24;1.63;;;0.70;;
6809;SDS011;3443;48.812;9.112;2023-03-11T00:58:49;0.80;;;0.80;;
6809;SDS011;3443;48.812;9.112;2023-03-11T01:01:16;0.90;;;0.90;;
6809;SDS011;3443;48.812;9.112;2023-03-11T01:03:43;0.80;;;0.80;;
6809;SDS011;3443;48.812;9.112;2023-03-11T01:06:09;2.00;;;0.90;;
6809;SDS011;3443;48.812;9.112;2023-03-11T01:08:35;0.97;;;0.90;;
6809;SDS011;3443;48.812;9.112;2023-03-11T01:11:01;1.50;;;1.03;;
6809;SDS011;3443;48.812;9.112;2023-03-11T01:13:28;0.80;;;0.80;;
6809;SDS011;3443;48.812;9.112;2023-03-11T01:15:54;1.27;;;0.80;;
6809;SDS011;3443;48.812;9.112;2023-03-11T01:18:20;0.70;;;0.70;;
6809;SDS011;3443;48.812;9.112;2023-03-11T01:20:46;0.90;;;0.90;;
6809;SDS011;3443;48.812;9.112;2023-03-11T01:23:12;0.60;;;0.60;;
6809;SDS011;3443;48.812;9.112;2023-03-11T01:25:38;0.80;;;0.80;;
6809;SDS011;3443;48.812;9.112;2023-03-11T01:28:04;0.70;;;0.70;;
6809;SDS011;3443;48.812;9.112;2023-03-11T01:30:32;1.03;;;0.80;;
6809;SDS011;3443;48.812;9.112;2023-03-11T01:32:59;1.63;;;0.80;;
6809;SDS011;3443;48.812;9.112;2023-03-11T01:35:25;0.70;;;0.70;;
6809;SDS011;3443;48.812;9.112;2023-03-11T01:37:52;0.97;;;0.80;;
6809;SDS011;3443;48.812;9.112;2023-03-11T01:40:21;2.13;;;0.80;;
6809;SDS011;3443;48.812;9.112;2023-03-11T01:43:03;0.80;;;0.80;;
6809;SDS011;3443;48.812;9.112;2023-03-11T01:45:41;0.97;;;0.73;;
6809;SDS011;3443;48.812;9.112;2023-03-11T01:48:27;1.70;;;0.67;;
6809;SDS011;3443;48.812;9.112;2023-03-11T01:50:53;1.07;;;0.97;;
6809;SDS011;3443;48.812;9.112;2023-03-11T01:53:20;1.17;;;0.77;;
6809;SDS011;3443;48.812;9.112;2023-03-11T01:55:46;1.27;;;0.70;;
6809;SDS011;3443;48.812;9.112;2023-03-11T01:58:22;1.30;;;0.97;;
6809;SDS011;3443;48.812;9.112;2023-03-11T02:00:52;0.80;;;0.60;;
6809;SDS011;3443;48.812;9.112;2023-03-11T02:03:25;0.70;;;0.70;;
6809;SDS011;3443;48.812;9.112;2023-03-11T02:05:54;0.93;;;0.60;;
6809;SDS011;3443;48.812;9.112;2023-03-11T02:08:21;0.63;;;0.63;;
6809;SDS011;3443;48.812;9.112;2023-03-11T02:10:47;0.60;;;0.60;;
6809;SDS011;3443;48.812;9.112;2023-03-11T02:13:15;1.20;;;0.60;;
6809;SDS011;3443;48.812;9.112;2023-03-11T02:15:41;1.83;;;0.80;;
6809;SDS011;3443;48.812;9.112;2023-03-11T02:18:08;2.77;;;1.00;;
6809;SDS011;3443;48.812;9.112;2023-03-11T02:23:07;0.67;;;0.67;;
6809;SDS011;3443;48.812;9.112;2023-03-11T02:25:35;1.03;;;0.70;;
6809;SDS011;3443;48.812;9.112;2023-03-11T02:28:12;0.67;;;0.67;;
6809;SDS011;3443;48.812;9.112;2023-03-11T02:30:42;0.63;;;0.63;;
6809;SDS011;3443;48.812;9.112;2023-03-11T02:33:09;1.23;;;0.87;;
6809;SDS011;3443;48.812;9.112;2023-03-11T02:35:35;0.70;;;0.70;;
6809;SDS011;3443;48.812;9.112;2023-03-11T02:38:01;0.70;;;0.70;;
6809;SDS011;3443;48.812;9.112;2023-03-11T02:40:30;1.33;;;0.97;;
6809;SDS011;3443;48.812;9.112;2023-03-11T02:43:01;3.17;;;0.60;;
6809;SDS011;3443;48.812;9.112;2023-03-11T02:45:29;2.57;;;0.80;;
6809;SDS011;3443;48.812;9.112;2023-03-11T02:47:56;1.00;;;0.67;;
6809;SDS011;3443;48.812;9.112;2023-03-11T02:50:23;0.83;;;0.70;;
6809;SDS011;3443;48.812;9.112;2023-03-11T02:52:50;1.23;;;0.90;;
6809;SDS011;3443;48.812;9.112;2023-03-11T02:55:16;0.50;;;0.40;;
6809;SDS011;3443;48.812;9.112;2023-03-11T02:57:44;1.60;;;0.40;;
6809;SDS011;3443;48.812;9.112;2023-03-11T03:00:11;0.57;;;0.57;;
6809;SDS011;3443;48.812;9.112;2023-03-11T03:02:40;3.77;;;0.70;;
6809;SDS011;3443;48.812;9.112;2023-03-11T03:05:09;0.87;;;0.60;;
6809;SDS011;3443;48.812;9.112;2023-03-11T03:07:36;2.13;;;0.60;;
6809;SDS011;3443;48.812;9.112;2023-03-11T03:10:03;1.97;;;0.43;;
6809;SDS011;3443;48.812;9.112;2023-03-11T03:12:29;1.00;;;0.60;;
6809;SDS011;3443;48.812;9.112;2023-03-11T03:14:55;1.40;;;0.77;;
6809;SDS011;3443;48.812;9.112;2023-03-11T03:17:22;2.07;;;0.70;;
6809;SDS011;3443;48.812;9.112;2023-03-11T03:19:48;1.37;;;0.70;;
6809;SDS011;3443;48.812;9.112;2023-03-11T03:22:13;1.67;;;0.60;;
6809;SDS011;3443;48.812;9.112;2023-03-11T03:24:39;1.17;;;0.50;;
6809;SDS011;3443;48.812;9.112;2023-03-11T03:27:05;1.60;;;0.77;;
6809;SDS011;3443;48.812;9.112;2023-03-11T03:29:31;0.80;;;0.50;;
6809;SDS011;3443;48.812;9.112;2023-03-11T03:31:56;1.90;;;0.60;;
6809;SDS011;3443;48.812;9.112;2023-03-11T03:34:22;0.60;;;0.60;;
6809;SDS011;3443;48.812;9.112;2023-03-11T03:36:48;1.93;;;0.80;;
6809;SDS011;3443;48.812;9.112;2023-03-11T03:39:13;1.03;;;0.60;;
6809;SDS011;3443;48.812;9.112;2023-03-11T03:41:40;2.37;;;0.70;;
6809;SDS011;3443;48.812;9.112;2023-03-11T03:44:05;3.63;;;0.90;;
6809;SDS011;3443;48.812;9.112;2023-03-11T03:46:31;1.10;;;0.70;;
6809;SDS011;3443;48.812;9.112;2023-03-11T03:48:56;1.07;;;0.70;;
6809;SDS011;3443;48.812;9.112;2023-03-11T03:51:22;1.73;;;0.77;;
6809;SDS011;3443;48.812;9.112;2023-03-11T03:53:47;1.33;;;0.93;;
6809;SDS011;3443;48.812;9.112;2023-03-11T03:56:14;1.13;;;1.03;;
6809;SDS011;3443;48.812;9.112;2023-03-11T03:58:41;2.43;;;1.57;;
6809;SDS011;3443;48.812;9.112;2023-03-11T04:01:07;11.07;;;4.90;;
6809;SDS011;3443;48.812;9.112;2023-03-11T04:03:34;5.40;;;2.83;;
6809;SDS011;3443;48.812;9.112;2023-03-11T04:06:22;9.23;;;2.90;;
6809;SDS011;3443;48.812;9.112;2023-03-11T04:08:49;6.57;;;2.97;;
6809;SDS011;3443;48.812;9.112;2023-03-11T04:11:16;4.37;;;2.70;;
6809;SDS011;3443;48.812;9.112;2023-03-11T04:13:41;6.10;;;3.60;;
6809;SDS011;3443;48.812;9.112;2023-03-11T04:16:09;8.77;;;3.87;;
6809;SDS011;3443;48.812;9.112;2023-03-11T04:18:44;4.13;;;2.20;;
6809;SDS011;3443;48.812;9.112;2023-03-11T04:21:10;1.80;;;1.70;;
6809;SDS011;3443;48.812;9.112;2023-03-11T04:23:36;3.20;;;1.70;;
6809;SDS011;3443;48.812;9.112;2023-03-11T04:26:01;1.43;;;1.33;;
6809;SDS011;3443;48.812;9.112;2023-03-11T04:28:27;1.77;;;1.30;;
6809;SDS011;3443;48.812;9.112;2023-03-11T04:30:53;2.63;;;2.20;;
6809;SDS011;3443;48.812;9.112;2023-03-11T04:33:19;4.50;;;2.53;;
6809;SDS011;3443;48.812;9.112;2023-03-11T04:35:44;1.40;;;1.30;;
6809;SDS011;3443;48.812;9.112;2023-03-11T04:38:10;3.20;;;1.37;;
6809;SDS011;3443;48.812;9.112;2023-03-11T04:40:38;1.30;;;1.20;;
6809;SDS011;3443;48.812;9.112;2023-03-11T04:43:05;4.50;;;1.10;;
6809;SDS011;3443;48.812;9.112;2023-03-11T04:45:31;0.90;;;0.90;;
6809;SDS011;3443;48.812;9.112;2023-03-11T04:47:57;2.67;;;1.27;;
6809;SDS011;3443;48.812;9.112;2023-03-11T04:50:22;1.53;;;1.17;;
6809;SDS011;3443;48.812;9.112;2023-03-11T04:52:48;1.20;;;0.73;;
6809;SDS011;3443;48.812;9.112;2023-03-11T04:55:14;2.17;;;1.50;;
6809;SDS011;3443;48.812;9.112;2023-03-11T04:57:40;0.93;;;0.80;;
6809;SDS011;3443;48.812;9.112;2023-03-11T05:00:06;1.70;;;0.93;;
6809;SDS011;3443;48.812;9.112;2023-03-11T05:02:35;3.47;;;0.97;;
6809;SDS011;3443;48.812;9.112;2023-03-11T05:05:02;2.67;;;1.17;;
6809;SDS011;3443;48.812;9.112;2023-03-11T05:07:28;2.37;;;1.13;;
6809;SDS011;3443;48.812;9.112;2023-03-11T05:09:53;1.63;;;0.90;;
6809;SDS011;3443;48.812;9.112;2023-03-11T05:12:19;1.80;;;0.77;;
6809;SDS011;3443;48.812;9.112;2023-03-11T05:14:44;0.80;;;0.80;;
6809;SDS011;3443;48.812;9.112;2023-03-11T05:17:10;2.30;;;0.93;;
6809;SDS011;3443;48.812;9.112;2023-03-11T05:19:37;3.20;;;0.90;;
6809;SDS011;3443;48.812;9.112;2023-03-11T05:22:03;3.07;;;1.10;;
6809;SDS011;3443;48.812;9.112;2023-03-11T05:24:29;2.00;;;0.70;;
6809;SDS011;3443;48.812;9.112;2023-03-11T05:26:55;1.00;;;0.70;;
6809;SDS011;3443;48.812;9.112;2023-03-11T05:29:21;0.93;;;0.93;;
6809;SDS011;3443;48.812;9.112;2023-03-11T05:31:48;1.60;;;0.80;;
6809;SDS011;3443;48.812;9.112;2023-03-11T05:34:14;6.43;;;1.10;;
6809;SDS011;3443;48.812;9.112;2023-03-11T05:36:40;1.43;;;0.90;;
6809;SDS011;3443;48.812;9.112;2023-03-11T05:39:06;1.63;;;1.00;;
6809;SDS011;3443;48.812;9.112;2023-03-11T05:41:32;1.77;;;0.90;;
6809;SDS011;3443;48.812;9.112;2023-03-11T05:43:58;1.53;;;0.90;;
6809;SDS011;3443;48.812;9.112;2023-03-11T05:46:23;0.90;;;0.90;;
6809;SDS011;3443;48.812;9.112;2023-03-11T05:48:49;2.73;;;1.10;;
6809;SDS011;3443;48.812;9.112;2023-03-11T05:51:15;1.60;;;1.00;;
6809;SDS011;3443;48.812;9.112;2023-03-11T05:53:41;3.33;;;0.83;;
6809;SDS011;3443;48.812;9.112;2023-03-11T05:56:12;1.40;;;1.10;;
6809;SDS011;3443;48.812;9.112;2023-03-11T05:58:41;2.33;;;1.10;;
6809;SDS011;3443;48.812;9.112;2023-03-11T06:01:11;2.23;;;1.20;;
6809;SDS011;3443;48.812;9.112;2023-03-11T06:03:38;1.13;;;0.93;;
6809;SDS011;3443;48.812;9.112;2023-03-11T06:06:05;3.60;;;1.20;;
6809;SDS011;3443;48.812;9.112;2023-03-11T06:08:32;1.77;;;1.00;;
6809;SDS011;3443;48.812;9.112;2023-03-11T06:11:01;2.80;;;1.00;;
6809;SDS011;3443;48.812;9.112;2023-03-11T06:13:35;1.80;;;0.87;;
6809;SDS011;3443;48.812;9.112;2023-03-11T06:16:01;1.23;;;0.80;;
6809;SDS011;3443;48.812;9.112;2023-03-11T06:18:28;1.60;;;0.80;;
6809;SDS011;3443;48.812;9.112;2023-03-11T06:20:56;3.13;;;1.20;;
6809;SDS011;3443;48.812;9.112;2023-03-11T06:23:23;1.73;;;1.00;;
6809;SDS011;3443;48.812;9.112;2023-03-11T06:26:04;2.13;;;0.90;;
6809;SDS011;3443;48.812;9.112;2023-03-11T06:28:30;3.40;;;1.30;;
6809;SDS011;3443;48.812;9.112;2023-03-11T06:30:56;3.97;;;1.03;;
6809;SDS011;3443;48.812;9.112;2023-03-11T06:33:30;2.77;;;1.20;;
6809;SDS011;3443;48.812;9.112;2023-03-11T06:35:58;2.37;;;1.10;;
6809;SDS011;3443;48.812;9.112;2023-03-11T06:38:25;1.53;;;0.97;;
6809;SDS011;3443;48.812;9.112;2023-03-11T06:40:51;2.77;;;1.10;;
6809;SDS011;3443;48.812;9.112;2023-03-11T06:43:17;2.47;;;0.87;;
6809;SDS011;3443;48.812;9.112;2023-03-11T06:45:43;1.60;;;0.90;;
6809;SDS011;3443;48.812;9.112;2023-03-11T06:48:08;2.03;;;0.90;;
6809;SDS011;3443;48.812;9.112;2023-03-11T06:50:34;2.43;;;1.17;;
6809;SDS011;3443;48.812;9.112;2023-03-11T06:52:59;2.17;;;1.13;;
6809;SDS011;3443;48.812;9.112;2023-03-11T06:55:26;1.77;;;1.00;;
6809;SDS011;3443;48.812;9.112;2023-03-11T06:57:52;4.40;;;1.33;;
6809;SDS011;3443;48.812;9.112;2023-03-11T07:00:18;1.50;;;0.67;;
6809;SDS011;3443;48.812;9.112;2023-03-11T07:02:44;4.07;;;1.10;;
6809;SDS011;3443;48.812;9.112;2023-03-11T07:05:09;1.00;;;0.77;;
6809;SDS011;3443;48.812;9.112;2023-03-11T07:07:36;3.53;;;0.90;;
6809;SDS011;3443;48.812;9.112;2023-03-11T07:10:02;1.97;;;0.70;;
6809;SDS011;3443;48.812;9.112;2023-03-11T07:12:28;5.43;;;0.93;;
6809;SDS011;3443;48.812;9.112;2023-03-11T07:14:54;1.40;;;0.67;;
6809;SDS011;3443;48.812;9.112;2023-03-11T07:17:20;5.40;;;1.27;;
6809;SDS011;3443;48.812;9.112;2023-03-11T07:19:46;3.87;;;1.20;;
6809;SDS011;3443;48.812;9.112;2023-03-11T07:22:12;2.93;;;1.30;;
6809;SDS011;3443;48.812;9.112;2023-03-11T07:24:38;6.90;;;1.20;;
6809;SDS011;3443;48.812;9.112;2023-03-11T07:27:04;2.53;;;1.30;;
6809;SDS011;3443;48.812;9.112;2023-03-11T07:29:29;2.57;;;1.03;;
6809;SDS011;3443;48.812;9.112;2023-03-11T07:31:55;2.30;;;1.00;;
6809;SDS011;3443;48.812;9.112;2023-03-11T07:34:20;4.70;;;1.10;;
6809;SDS011;3443;48.812;9.112;2023-03-11T07:36:46;3.40;;;1.17;;
6809;SDS011;3443;48.812;9.112;2023-03-11T07:39:13;3.83;;;0.97;;
6809;SDS011;3443;48.812;9.112;2023-03-11T07:41:40;3.97;;;1.23;;
6809;SDS011;3443;48.812;9.112;2023-03-11T07:44:06;3.87;;;1.17;;
6809;SDS011;3443;48.812;9.112;2023-03-11T07:46:32;3.93;;;1.10;;
6809;SDS011;3443;48.812;9.112;2023-03-11T07:48:57;3.10;;;1.20;;
6809;SDS011;3443;48.812;9.112;2023-03-11T07:51:25;3.80;;;1.00;;
6809;SDS011;3443;48.812;9.112;2023-03-11T07:53:53;1.97;;;0.90;;
6809;SDS011;3443;48.812;9.112;2023-03-11T07:56:20;2.67;;;0.73;;
6809;SDS011;3443;48.812;9.112;2023-03-11T07:58:48;2.13;;;0.77;;
6809;SDS011;3443;48.812;9.112;2023-03-11T08:01:15;1.50;;;0.67;;
6809;SDS011;3443;48.812;9.112;2023-03-11T08:03:44;4.63;;;1.13;;
6809;SDS011;3443;48.812;9.112;2023-03-11T08:06:14;3.33;;;0.90;;
6809;SDS011;3443;48.812;9.112;2023-03-11T08:08:44;2.83;;;0.73;;
6809;SDS011;3443;48.812;9.112;2023-03-11T08:11:11;1.83;;;0.77;;
6809;SDS011;3443;48.812;9.112;2023-03-11T08:13:38;1.50;;;0.87;;
6809;SDS011;3443;48.812;9.112;2023-03-11T08:16:05;2.07;;;0.60;;
6809;SDS011;3443;48.812;9.112;2023-03-11T08:18:32;3.10;;;1.30;;
6809;SDS011;3443;48.812;9.112;2023-03-11T08:20:58;2.83;;;0.73;;
6809;SDS011;3443;48.812;9.112;2023-03-11T08:23:28;3.83;;;0.63;;
6809;SDS011;3443;48.812;9.112;2023-03-11T08:25:53;1.63;;;0.60;;
6809;SDS011;3443;48.812;9.112;2023-03-11T08:28:19;3.27;;;0.90;;
6809;SDS011;3443;48.812;9.112;2023-03-11T08:30:45;3.30;;;0.67;;
6809;SDS011;3443;48.812;9.112;2023-03-11T08:33:10;0.90;;;0.40;;
6809;SDS011;3443;48.812;9.112;2023-03-11T08:35:36;3.53;;;0.90;;
6809;SDS011;3443;48.812;9.112;2023-03-11T08:38:01;3.13;;;0.40;;
6809;SDS011;3443;48.812;9.112;2023-03-11T08:40:27;3.27;;;0.90;;
6809;SDS011;3443;48.812;9.112;2023-03-11T08:42:54;6.10;;;1.10;;
6809;SDS011;3443;48.812;9.112;2023-03-11T08:45:20;5.83;;;0.70;;
6809;SDS011;3443;48.812;9.112;2023-03-11T08:47:46;2.00;;;0.70;;
6809;SDS011;3443;48.812;9.112;2023-03-11T08:50:12;3.67;;;1.00;;
6809;SDS011;3443;48.812;9.112;2023-03-11T08:52:39;6.87;;;1.00;;
6809;SDS011;3443;48.812;9.112;2023-03-11T08:55:05;2.93;;;0.60;;
6809;SDS011;3443;48.812;9.112;2023-03-11T08:57:33;5.60;;;0.90;;
6809;SDS011;3443;48.812;9.112;2023-03-11T08:59:59;2.57;;;0.90;;
6809;SDS011;3443;48.812;9.112;2023-03-11T09:02:24;2.27;;;0.60;;
6809;SDS011;3443;48.812;9.112;2023-03-11T09:04:51;2.93;;;0.73;;
6809;SDS011;3443;48.812;9.112;2023-03-11T09:07:17;4.13;;;0.60;;
6809;SDS011;3443;48.812;9.112;2023-03-11T09:09:43;2.97;;;0.77;;
6809;SDS011;3443;48.812;9.112;2023-03-11T09:12:08;4.20;;;0.80;;
6809;SDS011;3443;48.812;9.112;2023-03-11T09:14:39;4.43;;;0.53;;
6809;SDS011;3443;48.812;9.112;2023-03-11T09:17:06;1.50;;;0.70;;
6809;SDS011;3443;48.812;9.112;2023-03-11T09:19:32;2.33;;;0.70;;
6809;SDS011;3443;48.812;9.112;2023-03-11T09:22:01;2.03;;;0.80;;
6809;SDS011;3443;48.812;9.112;2023-03-11T09:24:27;1.53;;;0.70;;
6809;SDS011;3443;48.812;9.112;2023-03-11T09:26:53;2.73;;;0.80;;
6809;SDS011;3443;48.812;9.112;2023-03-11T09:29:19;4.17;;;0.70;;
6809;SDS011;3443;48.812;9.112;2023-03-11T09:31:44;1.40;;;0.50;;
6809;SDS011;3443;48.812;9.112;2023-03-11T09:34:11;2.00;;;0.67;;
6809;SDS011;3443;48.812;9.112;2023-03-11T09:36:39;0.97;;;0.70;;
6809;SDS011;3443;48.812;9.112;2023-03-11T09:39:05;1.87;;;0.57;;
6809;SDS011;3443;48.812;9.112;2023-03-11T09:44:37;2.20;;;0.73;;
6809;SDS011;3443;48.812;9.112;2023-03-11T09:52:57;1.07;;;0.60;;
6809;SDS011;3443;48.812;9.112;2023-03-11T09:55:43;1.87;;;0.60;;
6809;SDS011;3443;48.812;9.112;2023-03-11T09:58:13;1.30;;;0.60;;
6809;SDS011;3443;48.812;9.112;2023-03-11T10:01:00;3.93;;;1.13;;
6809;SDS011;3443;48.812;9.112;2023-03-11T10:03:30;3.07;;;0.83;;
6809;SDS011;3443;48.812;9.112;2023-03-11T10:17:15;1.90;;;0.53;;
6809;SDS011;3443;48.812;9.112;2023-03-11T10:20:13;0.90;;;0.50;;
6809;SDS011;3443;48.812;9.112;2023-03-11T10:28:39;6.87;;;0.93;;
6809;SDS011;3443;48.812;9.112;2023-03-11T10:34:04;4.67;;;0.53;;
6809;SDS011;3443;48.812;9.112;2023-03-11T10:39:31;1.63;;;0.60;;
6809;SDS011;3443;48.812;9.112;2023-03-11T10:41:58;2.10;;;0.53;;
6809;SDS011;3443;48.812;9.112;2023-03-11T10:44:39;2.37;;;0.63;;
6809;SDS011;3443;48.812;9.112;2023-03-11T10:47:06;3.10;;;0.60;;
6809;SDS011;3443;48.812;9.112;2023-03-11T10:49:42;0.97;;;0.50;;
6809;SDS011;3443;48.812;9.112;2023-03-11T10:52:08;2.03;;;0.30;;
6809;SDS011;3443;48.812;9.112;2023-03-11T10:54:37;0.93;;;0.53;;
6809;SDS011;3443;48.812;9.112;2023-03-11T10:57:24;2.33;;;0.50;;
6809;SDS011;3443;48.812;9.112;2023-03-11T10:59:52;1.30;;;0.40;;
6809;SDS011;3443;48.812;9.112;2023-03-11T11:02:28;2.95;;;0.50;;
6809;SDS011;3443;48.812;9.112;2023-03-11T11:05:04;1.92;;;0.40;;
6809;SDS011;3443;48.812;9.112;2023-03-11T11:07:42;1.08;;;0.40;;
6809;SDS011;3443;48.812;9.112;2023-03-11T11:15:30;2.72;;;0.90;;
6809;SDS011;3443;48.812;9.112;2023-03-11T11:17:59;5.00;;;1.00;;
6809;SDS011;3443;48.812;9.112;2023-03-11T11:21:01;4.78;;;0.75;;
6809;SDS011;3443;48.812;9.112;2023-03-11T11:23:31;2.17;;;0.40;;
6809;SDS011;3443;48.812;9.112;2023-03-11T11:26:02;2.15;;;0.40;;
6809;SDS011;3443;48.812;9.112;2023-03-11T11:28:30;1.20;;;0.47;;
6809;SDS011;3443;48.812;9.112;2023-03-11T11:30:58;1.58;;;0.50;;
6809;SDS011;3443;48.812;9.112;2023-03-11T11:33:33;2.42;;;0.40;;
6809;SDS011;3443;48.812;9.112;2023-03-11T11:36:04;1.75;;;0.40;;
6809;SDS011;3443;48.812;9.112;2023-03-11T11:38:36;1.67;;;0.40;;
6809;SDS011;3443;48.812;9.112;2023-03-11T11:41:02;1.83;;;0.50;;
6809;SDS011;3443;48.812;9.112;2023-03-11T11:43:49;1.08;;;0.40;;
6809;SDS011;3443;48.812;9.112;2023-03-11T11:46:30;2.53;;;0.40;;
6809;SDS011;3443;48.812;9.112;2023-03-11T11:49:10;1.67;;;0.40;;
6809;SDS011;3443;48.812;9.112;2023-03-11T11:51:57;3.92;;;0.73;;
6809;SDS011;3443;48.812;9.112;2023-03-11T11:54:37;0.65;;;0.30;;
6809;SDS011;3443;48.812;9.112;2023-03-11T11:57:17;1.40;;;0.40;;
6809;SDS011;3443;48.812;9.112;2023-03-11T11:59:44;0.80;;;0.30;;
6809;SDS011;3443;48.812;9.112;2023-03-11T12:18:38;0.60;;;0.30;;
6809;SDS011;3443;48.812;9.112;2023-03-11T12:27:18;1.55;;;0.30;;
6809;SDS011;3443;48.812;9.112;2023-03-11T12:29:48;1.55;;;0.40;;
6809;SDS011;3443;48.812;9.112;2023-03-11T12:33:02;2.20;;;0.38;;
6809;SDS011;3443;48.812;9.112;2023-03-11T12:38:16;1.10;;;0.57;;
6809;SDS011;3443;48.812;9.112;2023-03-11T12:46:01;2.60;;;0.35;;
6809;SDS011;3443;48.812;9.112;2023-03-11T12:48:31;0.85;;;0.32;;
6809;SDS011;3443;48.812;9.112;2023-03-11T12:50:58;2.85;;;0.50;;
6809;SDS011;3443;48.812;9.112;2023-03-11T12:56:16;1.33;;;0.68;;
6809;SDS011;3443;48.812;9.112;2023-03-11T13:04:56;1.75;;;0.30;;
6809;SDS011;3443;48.812;9.112;2023-03-11T13:07:38;1.00;;;0.32;;
6809;SDS011;3443;48.812;9.112;2023-03-11T13:10:14;0.70;;;0.40;;
6809;SDS011;3443;48.812;9.112;2023-03-11T13:12:42;3.25;;;0.40;;
6809;SDS011;3443;48.812;9.112;2023-03-11T13:18:01;0.63;;;0.32;;
6809;SDS011;3443;48.812;9.112;2023-03-11T13:28:26;0.93;;;0.38;;
6809;SDS011;3443;48.812;9.112;2023-03-11T13:39:50;2.17;;;0.50;;
6809;SDS011;3443;48.812;9.112;2023-03-11T13:42:20;1.98;;;0.40;;
6809;SDS011;3443;48.812;9.112;2023-03-11T13:44:49;1.08;;;0.40;;
6809;SDS011;3443;48.812;9.112;2023-03-11T13:47:15;2.25;;;0.50;;
6809;SDS011;3443;48.812;9.112;2023-03-11T13:52:24;2.65;;;0.50;;
6809;SDS011;3443;48.812;9.112;2023-03-11T13:57:32;2.05;;;0.50;;
6809;SDS011;3443;48.812;9.112;2023-03-11T14:02:48;0.90;;;0.40;;
6809;SDS011;3443;48.812;9.112;2023-03-11T14:05:21;0.85;;;0.40;;
6809;SDS011;3443;48.812;9.112;2023-03-11T14:08:09;0.65;;;0.40;;
6809;SDS011;3443;48.812;9.112;2023-03-11T14:10:58;5.70;;;1.00;;
6809;SDS011;3443;48.812;9.112;2023-03-11T14:13:25;2.45;;;0.60;;
6809;SDS011;3443;48.812;9.112;2023-03-11T14:15:59;2.50;;;0.60;;
6809;SDS011;3443;48.812;9.112;2023-03-11T14:21:02;0.50;;;0.50;;
6809;SDS011;3443;48.812;9.112;2023-03-11T14:23:34;0.60;;;0.60;;
6809;SDS011;3443;48.812;9.112;2023-03-11T14:26:05;1.55;;;0.45;;
6809;SDS011;3443;48.812;9.112;2023-03-11T14:28:34;0.45;;;0.43;;
6809;SDS011;3443;48.812;9.112;2023-03-11T14:31:02;0.73;;;0.57;;
6809;SDS011;3443;48.812;9.112;2023-03-11T14:33:29;2.20;;;0.55;;
6809;SDS011;3443;48.812;9.112;2023-03-11T14:35:58;1.88;;;0.60;;
6809;SDS011;3443;48.812;9.112;2023-03-11T14:38:29;0.88;;;0.52;;
6809;SDS011;3443;48.812;9.112;2023-03-11T14:40:56;0.40;;;0.40;;
6809;SDS011;3443;48.812;9.112;2023-03-11T14:43:31;1.10;;;0.38;;
6809;SDS011;3443;48.812;9.112;2023-03-11T14:46:01;1.40;;;0.40;;
6809;SDS011;3443;48.812;9.112;2023-03-11T14:48:29;2.85;;;0.57;;
6809;SDS011;3443;48.812;9.112;2023-03-11T14:50:56;0.95;;;0.75;;
6809;SDS011;3443;48.812;9.112;2023-03-11T14:53:24;3.90;;;0.63;;
6809;SDS011;3443;48.812;9.112;2023-03-11T14:55:55;1.08;;;0.60;;
6809;SDS011;3443;48.812;9.112;2023-03-11T15:00:49;1.83;;;0.73;;
6809;SDS011;3443;48.812;9.112;2023-03-11T15:03:37;0.50;;;0.50;;
6809;SDS011;3443;48.812;9.112;2023-03-11T15:06:17;2.10;;;0.68;;
6809;SDS011;3443;48.812;9.112;2023-03-11T15:08:51;0.73;;;0.50;;
6809;SDS011;3443;48.812;9.112;2023-03-11T15:11:23;1.35;;;0.38;;
6809;SDS011;3443;48.812;9.112;2023-03-11T15:13:52;3.65;;;0.60;;
6809;SDS011;3443;48.812;9.112;2023-03-11T15:16:21;0.70;;;0.63;;
6809;SDS011;3443;48.812;9.112;2023-03-11T15:18:47;0.50;;;0.50;;
6809;SDS011;3443;48.812;9.112;2023-03-11T15:21:17;2.72;;;0.50;;
6809;SDS011;3443;48.812;9.112;2023-03-11T15:23:44;0.68;;;0.50;;
6809;SDS011;3443;48.812;9.112;2023-03-11T15:26:16;1.02;;;0.52;;
6809;SDS011;3443;48.812;9.112;2023-03-11T15:28:52;3.47;;;0.50;;
6809;SDS011;3443;48.812;9.112;2023-03-11T15:33:44;2.35;;;0.77;;
6809;SDS011;3443;48.812;9.112;2023-03-11T15:44:37;2.95;;;0.55;;
6809;SDS011;3443;48.812;9.112;2023-03-11T15:47:07;0.35;;;0.32;;
6809;SDS011;3443;48.812;9.112;2023-03-11T15:49:41;0.40;;;0.38;;
6809;SDS011;3443;48.812;9.112;2023-03-11T15:52:07;3.50;;;0.98;;
6809;SDS011;3443;48.812;9.112;2023-03-11T15:54:33;3.33;;;0.93;;
6809;SDS011;3443;48.812;9.112;2023-03-11T15:56:59;0.90;;;0.40;;
6809;SDS011;3443;48.812;9.112;2023-03-11T15:59:27;4.07;;;0.82;;
6809;SDS011;3443;48.812;9.112;2023-03-11T16:01:53;1.33;;;0.60;;
6809;SDS011;3443;48.812;9.112;2023-03-11T16:04:19;0.82;;;0.70;;
6809;SDS011;3443;48.812;9.112;2023-03-11T16:06:45;1.50;;;0.82;;
6809;SDS011;3443;48.812;9.112;2023-03-11T16:09:12;2.10;;;0.50;;
6809;SDS011;3443;48.812;9.112;2023-03-11T16:11:38;1.92;;;0.52;;
6809;SDS011;3443;48.812;9.112;2023-03-11T16:14:05;1.70;;;0.90;;
6809;SDS011;3443;48.812;9.112;2023-03-11T16:16:34;2.25;;;0.70;;
6809;SDS011;3443;48.812;9.112;2023-03-11T16:18:59;0.88;;;0.80;;
6809;SDS011;3443;48.812;9.112;2023-03-11T16:21:29;1.30;;;0.70;;
6809;SDS011;3443;48.812;9.112;2023-03-11T16:23:59;1.90;;;0.63;;
6809;SDS011;3443;48.812;9.112;2023-03-11T16:26:25;3.35;;;0.90;;
6809;SDS011;3443;48.812;9.112;2023-03-11T16:28:51;2.00;;;0.68;;
6809;SDS011;3443;48.812;9.112;2023-03-11T16:31:17;0.93;;;0.63;;
6809;SDS011;3443;48.812;9.112;2023-03-11T16:33:42;1.75;;;0.95;;
6809;SDS011;3443;48.812;9.112;2023-03-11T16:36:09;5.82;;;1.15;;
6809;SDS011;3443;48.812;9.112;2023-03-11T16:38:40;1.05;;;0.70;;
6809;SDS011;3443;48.812;9.112;2023-03-11T16:41:09;1.10;;;0.50;;
6809;SDS011;3443;48.812;9.112;2023-03-11T16:43:35;2.70;;;0.60;;
6809;SDS011;3443;48.812;9.112;2023-03-11T16:46:00;2.92;;;1.35;;
6809;SDS011;3443;48.812;9.112;2023-03-11T16:48:26;2.78;;;1.20;;
6809;SDS011;3443;48.812;9.112;2023-03-11T16:50:52;2.88;;;1.05;;
6809;SDS011;3443;48.812;9.112;2023-03-11T16:53:17;2.72;;;1.45;;
6809;SDS011;3443;48.812;9.112;2023-03-11T16:55:43;2.83;;;1.33;;
6809;SDS011;3443;48.812;9.112;2023-03-11T16:58:10;3.03;;;1.60;;
6809;SDS011;3443;48.812;9.112;2023-03-11T17:00:36;4.65;;;1.42;;
6809;SDS011;3443;48.812;9.112;2023-03-11T17:03:02;2.00;;;0.77;;
6809;SDS011;3443;48.812;9.112;2023-03-11T17:05:28;1.15;;;1.05;;
6809;SDS011;3443;48.812;9.112;2023-03-11T17:07:57;5.63;;;1.10;;
6809;SDS011;3443;48.812;9.112;2023-03-11T17:10:28;2.22;;;1.30;;
6809;SDS011;3443;48.812;9.112;2023-03-11T17:13:16;3.25;;;1.17;;
6809;SDS011;3443;48.812;9.112;2023-03-11T17:15:41;5.55;;;1.27;;
6809;SDS011;3443;48.812;9.112;2023-03-11T17:18:08;2.73;;;1.23;;
6809;SDS011;3443;48.812;9.112;2023-03-11T17:20:37;3.05;;;1.10;;
6809;SDS011;3443;48.812;9.112;2023-03-11T17:23:03;3.25;;;1.60;;
6809;SDS011;3443;48.812;9.112;2023-03-11T17:25:29;2.33;;;1.45;;